Bayamo — PCMA — position and weather

sailwx.info

Track history (hours):
 
Tides and Currents Weather Stations Pressure Air Temp Water Temp Dewpoint Dewpoint Depression Visibility Wind Speed Wind Dir Waves Ship Positions

Bayamo

Last reported at 2018-Feb-16 22:42 UTC. Time now 2018-Feb-17 23:06 UTC.
Position N 55°58' W 002°11'.

Length 88 m; draft 4.1 m.

Type: Ship (hazmat cat D). MMSI: 245669000.

Date/timePositionNaut miles runAvg speedWind from/ knotsBaromVisibWave heightAir tempDewpointWater temp
2018-Feb-16 22:42N 55°58' W 002°11'1 6.4
2018-Feb-16 22:31N 55°58' W 002°13'3 6.2
2018-Feb-16 21:59N 55°60' W 002°18'3 6.3
2018-Feb-16 21:31N 56°01' W 002°23'3 6.5
2018-Feb-16 21:01N 56°03' W 002°28'4 7.2
2018-Feb-16 20:31N 56°04' W 002°34'4 7.7
2018-Feb-16 20:01N 56°06' W 002°40'4 8.5
2018-Feb-16 19:30N 56°06' W 002°48'4 8.8
2018-Feb-16 19:00N 56°04' W 002°55'4 8.5
2018-Feb-16 18:31N 56°03' W 003°03'4 8.9
2018-Feb-16 18:01N 56°03' W 003°11'0 0.0
2018-Feb-15 13:24N 56°03' W 003°10'3 6.6
2018-Feb-15 13:00N 56°04' W 003°06'4 7.7
2018-Feb-15 12:30N 56°05' W 002°59'3 5.4
2018-Feb-15 12:01N 56°05' W 002°55'3 5.3
2018-Feb-15 11:30N 56°06' W 002°50'2 4.3
2018-Feb-15 11:00N 56°07' W 002°46'2 4.3
2018-Feb-15 10:31N 56°07' W 002°42'3 5.4
2018-Feb-15 10:00N 56°06' W 002°38'3 6.1
2018-Feb-15 09:30N 56°05' W 002°33'5 9.6
2018-Feb-15 09:01N 56°03' W 002°25'510.1
2018-Feb-15 08:31N 56°01' W 002°17'710.3
2018-Feb-15 07:47N 55°57' W 002°05'710.9
2018-Feb-15 07:10N 55°53' W 001°57'2 9.9
2018-Feb-15 07:00N 55°51' W 001°55'510.3
2018-Feb-15 06:30N 55°48' W 001°48'9410.3
2018-Feb-14 21:23N 54°32' W 000°12'411.8
2018-Feb-14 21:00N 54°28' W 000°08'611.9
2018-Feb-14 20:31N 54°23' W 000°02'611.8
2018-Feb-14 20:00N 54°18' E 000°04'611.7
2018-Feb-14 19:30N 54°14' E 000°10'7611.1
2018-Feb-14 12:38N 53°10' E 001°20'213.0
2018-Feb-14 12:31N 53°08' E 001°21'713.2
2018-Feb-14 12:01N 53°03' E 001°27'713.1
2018-Feb-14 11:31N 52°57' E 001°33'612.6
2018-Feb-14 11:01N 52°53' E 001°41'9410.4
2018-Feb-14 01:59N 52°03' E 003°52'4 9.2
2018-Feb-14 01:30N 52°01' E 003°58'611.7
2018-Feb-14 01:00N 51°59' E 004°07'5 9.8
2018-Feb-14 00:31N 51°56' E 004°13'5 9.7
2018-Feb-14 00:00N 51°53' E 004°20'510.9
2018-Feb-13 23:30N 51°50' E 004°27'510.1
2018-Feb-13 23:00N 51°49' E 004°35'510.4
2018-Feb-13 22:29N 51°43' E 004°38'3 6.0
2018-Feb-13 21:58N 51°42' E 004°34'2 0.1
2018-Feb-12 21:37N 51°42' E 004°37'1 9.0
2018-Feb-12 21:30N 51°43' E 004°37'4 8.7
2018-Feb-12 21:01N 51°47' E 004°37'3 6.8
2018-Feb-12 20:30N 51°50' E 004°33'4 8.5
2018-Feb-12 20:00N 51°50' E 004°26'4 8.4
2018-Feb-12 19:30N 51°52' E 004°20'4 7.7
2018-Feb-12 19:00N 51°54' E 004°16'4 8.0
2018-Feb-12 18:30N 51°57' E 004°11'4 8.1
2018-Feb-12 18:00N 51°59' E 004°05'4 8.5
2018-Feb-12 17:30N 52°00' E 003°58'7 7.5
2018-Feb-12 16:38N 51°56' E 003°50'87 4.4
2018-Feb-11 20:41N 52°46' E 001°53'2 7.3
2018-Feb-11 20:21N 52°47' E 001°50'3 7.6
2018-Feb-11 20:00N 52°49' E 001°46'4 7.9
2018-Feb-11 19:30N 52°52' E 001°42'4 8.3
2018-Feb-11 19:00N 52°54' E 001°37'4 8.2
2018-Feb-11 18:30N 52°58' E 001°32'4 8.3
2018-Feb-11 18:00N 53°01' E 001°28'4 8.2
2018-Feb-11 17:30N 53°04' E 001°23'4 8.0
2018-Feb-11 17:00N 53°07' E 001°19'68 7.7
2018-Feb-11 08:08N 54°01' E 000°10'1 7.5
2018-Feb-11 07:58N 54°02' E 000°09'3 7.5
2018-Feb-11 07:30N 54°05' E 000°06'4 7.2
2018-Feb-11 07:00N 54°09' E 000°04'4 7.3
2018-Feb-11 06:30N 54°12' E 000°02'4 8.1
2018-Feb-11 06:01N 54°15' W 000°02'4 8.2
2018-Feb-11 05:31N 54°19' W 000°06'4 8.3
2018-Feb-11 05:00N 54°23' W 000°09'4 8.5
2018-Feb-11 04:31N 54°26' W 000°12'4 8.6
2018-Feb-11 04:01N 54°30' W 000°16'4 8.8
2018-Feb-11 03:31N 54°34' W 000°20'4 8.9
2018-Feb-11 03:01N 54°38' W 000°24'5 9.0
2018-Feb-11 02:25N 54°43' W 000°28'95 6.9
2018-Feb-10 12:40N 55°58' W 002°11'1 7.9
2018-Feb-10 12:31N 55°58' W 002°13'4 8.0
2018-Feb-10 12:00N 56°00' W 002°20'4 8.1
2018-Feb-10 11:31N 56°02' W 002°26'4 8.1
2018-Feb-10 11:01N 56°04' W 002°33'4 7.7
2018-Feb-10 10:31N 56°05' W 002°39'4 8.5
2018-Feb-10 10:00N 56°05' W 002°47'4 8.5
2018-Feb-10 09:30N 56°04' W 002°54'4 8.1
2018-Feb-10 09:01N 56°03' W 003°01'4 7.9
2018-Feb-10 08:31N 56°03' W 003°08'0 0.0
2018-Feb-08 22:30N 56°02' W 003°08'1 0.3
2018-Feb-08 20:00N 56°02' W 003°07'2 4.9
2018-Feb-08 19:30N 56°03' W 003°03'5 9.9
2018-Feb-08 19:00N 56°05' W 002°55'1610.7
2018-Feb-08 17:30N 56°04' W 002°26'2311.4
2018-Feb-08 15:30N 55°52' W 001°52'4910.8
2018-Feb-08 11:00N 55°07' W 001°18'1110.8
2018-Feb-08 10:00N 54°56' W 001°13'9 0.4
2018-Feb-07 07:55N 54°47' W 001°10'0 0.2
2018-Feb-07 07:28N 54°47' W 001°10'0 0.0
2018-Feb-07 06:58N 54°47' W 001°10'0 0.0
2018-Feb-07 06:25N 54°47' W 001°10'0 0.0
2018-Feb-07 05:58N 54°47' W 001°10'0 0.0
2018-Feb-07 05:28N 54°47' W 001°10'0 0.0
2018-Feb-07 05:00N 54°47' W 001°10'0 0.0
2018-Feb-07 04:29N 54°47' W 001°10'0 0.0
2018-Feb-07 03:59N 54°47' W 001°10'0 0.0
2018-Feb-07 03:29N 54°47' W 001°10'0 0.0
2018-Feb-07 02:59N 54°47' W 001°10'0 0.0
2018-Feb-07 02:22N 54°47' W 001°10'0 0.0
2018-Feb-07 01:59N 54°47' W 001°10'0 0.0
2018-Feb-07 01:28N 54°47' W 001°10'0 0.0
2018-Feb-07 00:49N 54°47' W 001°10'0 0.0
2018-Feb-07 00:30N 54°47' W 001°10'0 0.0
2018-Feb-07 00:00N 54°47' W 001°10'0 0.0
2018-Feb-06 23:29N 54°47' W 001°10'0 0.0
2018-Feb-06 22:59N 54°47' W 001°10'  
Track history (hours):
 
Tides and Currents Weather Stations Pressure Air Temp Water Temp Dewpoint Dewpoint Depression Visibility Wind Speed Wind Dir Waves Ship Positions

Bayamo

Last reported at 2018-Feb-16 22:42 UTC. Time now 2018-Feb-17 23:06 UTC.
Position N 55°58' W 002°11'.

Length 88 m; draft 4.1 m.

Type: Ship (hazmat cat D). MMSI: 245669000.

Date/timePositionNaut miles runAvg speedWind from/ knotsBaromVisibWave heightAir tempDewpointWater temp
2018-Feb-16 22:42N 55°58' W 002°11'1 6.4
2018-Feb-16 22:31N 55°58' W 002°13'3 6.2
2018-Feb-16 21:59N 55°60' W 002°18'3 6.3
2018-Feb-16 21:31N 56°01' W 002°23'3 6.5
2018-Feb-16 21:01N 56°03' W 002°28'4 7.2
2018-Feb-16 20:31N 56°04' W 002°34'4 7.7
2018-Feb-16 20:01N 56°06' W 002°40'4 8.5
2018-Feb-16 19:30N 56°06' W 002°48'4 8.8
2018-Feb-16 19:00N 56°04' W 002°55'4 8.5
2018-Feb-16 18:31N 56°03' W 003°03'4 8.9
2018-Feb-16 18:01N 56°03' W 003°11'0 0.0
2018-Feb-15 13:24N 56°03' W 003°10'3 6.6
2018-Feb-15 13:00N 56°04' W 003°06'4 7.7
2018-Feb-15 12:30N 56°05' W 002°59'3 5.4
2018-Feb-15 12:01N 56°05' W 002°55'3 5.3
2018-Feb-15 11:30N 56°06' W 002°50'2 4.3
2018-Feb-15 11:00N 56°07' W 002°46'2 4.3
2018-Feb-15 10:31N 56°07' W 002°42'3 5.4
2018-Feb-15 10:00N 56°06' W 002°38'3 6.1
2018-Feb-15 09:30N 56°05' W 002°33'5 9.6
2018-Feb-15 09:01N 56°03' W 002°25'510.1
2018-Feb-15 08:31N 56°01' W 002°17'710.3
2018-Feb-15 07:47N 55°57' W 002°05'710.9
2018-Feb-15 07:10N 55°53' W 001°57'2 9.9
2018-Feb-15 07:00N 55°51' W 001°55'510.3
2018-Feb-15 06:30N 55°48' W 001°48'9410.3
2018-Feb-14 21:23N 54°32' W 000°12'411.8
2018-Feb-14 21:00N 54°28' W 000°08'611.9
2018-Feb-14 20:31N 54°23' W 000°02'611.8
2018-Feb-14 20:00N 54°18' E 000°04'611.7
2018-Feb-14 19:30N 54°14' E 000°10'7611.1
2018-Feb-14 12:38N 53°10' E 001°20'213.0
2018-Feb-14 12:31N 53°08' E 001°21'713.2
2018-Feb-14 12:01N 53°03' E 001°27'713.1
2018-Feb-14 11:31N 52°57' E 001°33'612.6
2018-Feb-14 11:01N 52°53' E 001°41'9410.4
2018-Feb-14 01:59N 52°03' E 003°52'4 9.2
2018-Feb-14 01:30N 52°01' E 003°58'611.7
2018-Feb-14 01:00N 51°59' E 004°07'5 9.8
2018-Feb-14 00:31N 51°56' E 004°13'5 9.7
2018-Feb-14 00:00N 51°53' E 004°20'510.9
2018-Feb-13 23:30N 51°50' E 004°27'510.1
2018-Feb-13 23:00N 51°49' E 004°35'510.4
2018-Feb-13 22:29N 51°43' E 004°38'3 6.0
2018-Feb-13 21:58N 51°42' E 004°34'2 0.1
2018-Feb-12 21:37N 51°42' E 004°37'1 9.0
2018-Feb-12 21:30N 51°43' E 004°37'4 8.7
2018-Feb-12 21:01N 51°47' E 004°37'3 6.8
2018-Feb-12 20:30N 51°50' E 004°33'4 8.5
2018-Feb-12 20:00N 51°50' E 004°26'4 8.4
2018-Feb-12 19:30N 51°52' E 004°20'4 7.7
2018-Feb-12 19:00N 51°54' E 004°16'4 8.0
2018-Feb-12 18:30N 51°57' E 004°11'4 8.1
2018-Feb-12 18:00N 51°59' E 004°05'4 8.5
2018-Feb-12 17:30N 52°00' E 003°58'7 7.5
2018-Feb-12 16:38N 51°56' E 003°50'87 4.4
2018-Feb-11 20:41N 52°46' E 001°53'2 7.3
2018-Feb-11 20:21N 52°47' E 001°50'3 7.6
2018-Feb-11 20:00N 52°49' E 001°46'4 7.9
2018-Feb-11 19:30N 52°52' E 001°42'4 8.3
2018-Feb-11 19:00N 52°54' E 001°37'4 8.2
2018-Feb-11 18:30N 52°58' E 001°32'4 8.3
2018-Feb-11 18:00N 53°01' E 001°28'4 8.2
2018-Feb-11 17:30N 53°04' E 001°23'4 8.0
2018-Feb-11 17:00N 53°07' E 001°19'68 7.7
2018-Feb-11 08:08N 54°01' E 000°10'1 7.5
2018-Feb-11 07:58N 54°02' E 000°09'3 7.5
2018-Feb-11 07:30N 54°05' E 000°06'4 7.2
2018-Feb-11 07:00N 54°09' E 000°04'4 7.3
2018-Feb-11 06:30N 54°12' E 000°02'4 8.1
2018-Feb-11 06:01N 54°15' W 000°02'4 8.2
2018-Feb-11 05:31N 54°19' W 000°06'4 8.3
2018-Feb-11 05:00N 54°23' W 000°09'4 8.5
2018-Feb-11 04:31N 54°26' W 000°12'4 8.6
2018-Feb-11 04:01N 54°30' W 000°16'4 8.8
2018-Feb-11 03:31N 54°34' W 000°20'4 8.9
2018-Feb-11 03:01N 54°38' W 000°24'5 9.0
2018-Feb-11 02:25N 54°43' W 000°28'95 6.9
2018-Feb-10 12:40N 55°58' W 002°11'1 7.9
2018-Feb-10 12:31N 55°58' W 002°13'4 8.0
2018-Feb-10 12:00N 56°00' W 002°20'4 8.1
2018-Feb-10 11:31N 56°02' W 002°26'4 8.1
2018-Feb-10 11:01N 56°04' W 002°33'4 7.7
2018-Feb-10 10:31N 56°05' W 002°39'4 8.5
2018-Feb-10 10:00N 56°05' W 002°47'4 8.5
2018-Feb-10 09:30N 56°04' W 002°54'4 8.1
2018-Feb-10 09:01N 56°03' W 003°01'4 7.9
2018-Feb-10 08:31N 56°03' W 003°08'0 0.0
2018-Feb-08 22:30N 56°02' W 003°08'1 0.3
2018-Feb-08 20:00N 56°02' W 003°07'2 4.9
2018-Feb-08 19:30N 56°03' W 003°03'5 9.9
2018-Feb-08 19:00N 56°05' W 002°55'1610.7
2018-Feb-08 17:30N 56°04' W 002°26'2311.4
2018-Feb-08 15:30N 55°52' W 001°52'4910.8
2018-Feb-08 11:00N 55°07' W 001°18'1110.8
2018-Feb-08 10:00N 54°56' W 001°13'9 0.4
2018-Feb-07 07:55N 54°47' W 001°10'0 0.2
2018-Feb-07 07:28N 54°47' W 001°10'0 0.0
2018-Feb-07 06:58N 54°47' W 001°10'0 0.0
2018-Feb-07 06:25N 54°47' W 001°10'0 0.0
2018-Feb-07 05:58N 54°47' W 001°10'0 0.0
2018-Feb-07 05:28N 54°47' W 001°10'0 0.0
2018-Feb-07 05:00N 54°47' W 001°10'0 0.0
2018-Feb-07 04:29N 54°47' W 001°10'0 0.0
2018-Feb-07 03:59N 54°47' W 001°10'0 0.0
2018-Feb-07 03:29N 54°47' W 001°10'0 0.0
2018-Feb-07 02:59N 54°47' W 001°10'0 0.0
2018-Feb-07 02:22N 54°47' W 001°10'0 0.0
2018-Feb-07 01:59N 54°47' W 001°10'0 0.0
2018-Feb-07 01:28N 54°47' W 001°10'0 0.0
2018-Feb-07 00:49N 54°47' W 001°10'0 0.0
2018-Feb-07 00:30N 54°47' W 001°10'0 0.0
2018-Feb-07 00:00N 54°47' W 001°10'0 0.0
2018-Feb-06 23:29N 54°47' W 001°10'0 0.0
2018-Feb-06 22:59N 54°47' W 001°10'  

Dump ship's entire track history